sensor_id;sensor_type;location;lat;lon;timestamp;pressure;altitude;pressure_sealevel;temperature;humidity
20043;BME280;10182;52.896;6.496;2023-04-01T00:01:30;99033.06;;;9.29;100.00
20043;BME280;10182;52.896;6.496;2023-04-01T00:06:31;99040.28;;;9.27;100.00
20043;BME280;10182;52.896;6.496;2023-04-01T00:11:34;99040.69;;;9.34;100.00
20043;BME280;10182;52.896;6.496;2023-04-01T00:22:31;99040.16;;;9.28;100.00
20043;BME280;10182;52.896;6.496;2023-04-01T00:27:35;99037.81;;;9.24;100.00
20043;BME280;10182;52.896;6.496;2023-04-01T00:32:37;99033.06;;;9.16;100.00
20043;BME280;10182;52.896;6.496;2023-04-01T00:37:39;99028.94;;;9.12;100.00
20043;BME280;10182;52.896;6.496;2023-04-01T00:42:42;99036.88;;;9.12;100.00
20043;BME280;10182;52.896;6.496;2023-04-01T00:47:43;99028.41;;;9.07;100.00
20043;BME280;10182;52.896;6.496;2023-04-01T00:52:45;99035.06;;;9.12;100.00
20043;BME280;10182;52.896;6.496;2023-04-01T00:57:49;99030.84;;;9.10;100.00
20043;BME280;10182;52.896;6.496;2023-04-01T01:02:52;99036.13;;;9.10;100.00
20043;BME280;10182;52.896;6.496;2023-04-01T01:08:01;99034.00;;;9.02;100.00
20043;BME280;10182;52.896;6.496;2023-04-01T01:13:13;99042.56;;;9.06;100.00
20043;BME280;10182;52.896;6.496;2023-04-01T01:18:21;99038.97;;;9.07;100.00
20043;BME280;10182;52.896;6.496;2023-04-01T01:29:54;99028.72;;;9.02;100.00
20043;BME280;10182;52.896;6.496;2023-04-01T01:35:16;99034.63;;;9.06;100.00
20043;BME280;10182;52.896;6.496;2023-04-01T01:40:20;99036.66;;;9.02;100.00
20043;BME280;10182;52.896;6.496;2023-04-01T01:45:24;99041.19;;;9.00;100.00
20043;BME280;10182;52.896;6.496;2023-04-01T01:50:28;99036.84;;;8.99;100.00
20043;BME280;10182;52.896;6.496;2023-04-01T01:55:32;99039.03;;;8.92;100.00
20043;BME280;10182;52.896;6.496;2023-04-01T02:00:35;99047.50;;;8.97;100.00
20043;BME280;10182;52.896;6.496;2023-04-01T02:05:39;99047.72;;;9.07;100.00
20043;BME280;10182;52.896;6.496;2023-04-01T02:10:43;99047.00;;;9.05;100.00
20043;BME280;10182;52.896;6.496;2023-04-01T02:15:48;99049.84;;;9.02;100.00
20043;BME280;10182;52.896;6.496;2023-04-01T02:20:53;99055.03;;;9.04;100.00
20043;BME280;10182;52.896;6.496;2023-04-01T02:25:56;99061.47;;;9.12;100.00
20043;BME280;10182;52.896;6.496;2023-04-01T02:30:59;99062.63;;;9.08;100.00
20043;BME280;10182;52.896;6.496;2023-04-01T02:36:04;99067.91;;;9.08;100.00
20043;BME280;10182;52.896;6.496;2023-04-01T02:41:06;99069.41;;;9.12;100.00
20043;BME280;10182;52.896;6.496;2023-04-01T02:46:07;99069.72;;;9.08;100.00
20043;BME280;10182;52.896;6.496;2023-04-01T02:51:11;99067.19;;;9.06;100.00
20043;BME280;10182;52.896;6.496;2023-04-01T02:56:12;99075.44;;;9.14;100.00
20043;BME280;10182;52.896;6.496;2023-04-01T03:01:14;99082.06;;;9.07;100.00
20043;BME280;10182;52.896;6.496;2023-04-01T03:06:17;99090.75;;;9.09;100.00
20043;BME280;10182;52.896;6.496;2023-04-01T03:11:19;99090.66;;;9.11;100.00
20043;BME280;10182;52.896;6.496;2023-04-01T03:16:22;99093.50;;;9.08;100.00
20043;BME280;10182;52.896;6.496;2023-04-01T03:21:25;99095.69;;;9.01;100.00
20043;BME280;10182;52.896;6.496;2023-04-01T03:26:27;99096.44;;;9.03;100.00
20043;BME280;10182;52.896;6.496;2023-04-01T03:31:29;99107.00;;;9.03;100.00
20043;BME280;10182;52.896;6.496;2023-04-01T03:36:32;99109.63;;;9.03;100.00
20043;BME280;10182;52.896;6.496;2023-04-01T03:41:36;99120.41;;;9.00;100.00
20043;BME280;10182;52.896;6.496;2023-04-01T03:46:38;99118.91;;;8.96;100.00
20043;BME280;10182;52.896;6.496;2023-04-01T03:51:42;99121.66;;;8.94;100.00
20043;BME280;10182;52.896;6.496;2023-04-01T03:56:44;99125.13;;;8.95;100.00
20043;BME280;10182;52.896;6.496;2023-04-01T04:01:47;99142.78;;;8.94;100.00
20043;BME280;10182;52.896;6.496;2023-04-01T04:06:50;99137.28;;;8.97;100.00
20043;BME280;10182;52.896;6.496;2023-04-01T04:11:52;99141.94;;;8.94;100.00
20043;BME280;10182;52.896;6.496;2023-04-01T04:16:54;99143.00;;;8.91;100.00
20043;BME280;10182;52.896;6.496;2023-04-01T04:21:57;99142.13;;;8.91;100.00
20043;BME280;10182;52.896;6.496;2023-04-01T04:27:01;99150.25;;;8.88;100.00
20043;BME280;10182;52.896;6.496;2023-04-01T04:32:02;99155.34;;;8.91;100.00
20043;BME280;10182;52.896;6.496;2023-04-01T04:37:05;99164.97;;;8.92;100.00
20043;BME280;10182;52.896;6.496;2023-04-01T04:42:07;99169.56;;;8.88;100.00
20043;BME280;10182;52.896;6.496;2023-04-01T04:47:09;99168.09;;;8.84;100.00
20043;BME280;10182;52.896;6.496;2023-04-01T04:52:12;99175.16;;;8.84;100.00
20043;BME280;10182;52.896;6.496;2023-04-01T04:57:14;99183.09;;;8.84;100.00
20043;BME280;10182;52.896;6.496;2023-04-01T05:02:15;99185.84;;;8.82;100.00
20043;BME280;10182;52.896;6.496;2023-04-01T05:07:18;99197.22;;;8.83;100.00
20043;BME280;10182;52.896;6.496;2023-04-01T05:12:20;99205.03;;;8.84;100.00
20043;BME280;10182;52.896;6.496;2023-04-01T05:17:22;99207.06;;;8.80;100.00
20043;BME280;10182;52.896;6.496;2023-04-01T05:22:25;99213.94;;;8.83;100.00
20043;BME280;10182;52.896;6.496;2023-04-01T05:27:27;99220.16;;;8.82;100.00
20043;BME280;10182;52.896;6.496;2023-04-01T05:32:30;99223.63;;;8.83;100.00
20043;BME280;10182;52.896;6.496;2023-04-01T05:37:34;99228.81;;;8.84;100.00
20043;BME280;10182;52.896;6.496;2023-04-01T05:42:36;99239.28;;;8.86;100.00
20043;BME280;10182;52.896;6.496;2023-04-01T05:47:38;99253.25;;;8.88;100.00
20043;BME280;10182;52.896;6.496;2023-04-01T05:52:41;99251.53;;;8.87;100.00
20043;BME280;10182;52.896;6.496;2023-04-01T05:57:44;99256.72;;;8.88;100.00
20043;BME280;10182;52.896;6.496;2023-04-01T06:02:46;99260.03;;;8.92;100.00
20043;BME280;10182;52.896;6.496;2023-04-01T06:07:50;99268.88;;;8.91;100.00
20043;BME280;10182;52.896;6.496;2023-04-01T06:13:03;99276.53;;;8.95;100.00
20043;BME280;10182;52.896;6.496;2023-04-01T06:18:34;99287.63;;;9.01;100.00
20043;BME280;10182;52.896;6.496;2023-04-01T06:23:50;99296.03;;;9.07;100.00
20043;BME280;10182;52.896;6.496;2023-04-01T06:29:19;99298.13;;;9.02;100.00
20043;BME280;10182;52.896;6.496;2023-04-01T06:34:40;99304.16;;;9.04;100.00
20043;BME280;10182;52.896;6.496;2023-04-01T06:40:06;99310.19;;;9.06;100.00
20043;BME280;10182;52.896;6.496;2023-04-01T06:45:27;99322.53;;;9.06;100.00
20043;BME280;10182;52.896;6.496;2023-04-01T06:50:36;99324.25;;;9.07;100.00
20043;BME280;10182;52.896;6.496;2023-04-01T06:55:46;99332.63;;;9.13;100.00
20043;BME280;10182;52.896;6.496;2023-04-01T07:01:08;99346.78;;;9.12;100.00
20043;BME280;10182;52.896;6.496;2023-04-01T07:06:16;99349.13;;;9.17;100.00
20043;BME280;10182;52.896;6.496;2023-04-01T07:11:26;99364.03;;;9.18;100.00
20043;BME280;10182;52.896;6.496;2023-04-01T07:16:32;99363.66;;;9.10;100.00
20043;BME280;10182;52.896;6.496;2023-04-01T07:21:40;99378.28;;;9.15;100.00
20043;BME280;10182;52.896;6.496;2023-04-01T07:26:44;99377.81;;;9.09;100.00
20043;BME280;10182;52.896;6.496;2023-04-01T07:31:56;99389.03;;;9.12;100.00
20043;BME280;10182;52.896;6.496;2023-04-01T07:37:07;99401.94;;;9.17;100.00
20043;BME280;10182;52.896;6.496;2023-04-01T07:42:16;99407.06;;;9.20;100.00
20043;BME280;10182;52.896;6.496;2023-04-01T07:47:33;99417.34;;;9.25;100.00
20043;BME280;10182;52.896;6.496;2023-04-01T07:52:41;99420.16;;;9.36;100.00
20043;BME280;10182;52.896;6.496;2023-04-01T07:57:52;99432.59;;;9.48;100.00
20043;BME280;10182;52.896;6.496;2023-04-01T08:03:09;99435.03;;;9.66;100.00
20043;BME280;10182;52.896;6.496;2023-04-01T08:08:19;99448.91;;;9.70;100.00
20043;BME280;10182;52.896;6.496;2023-04-01T08:13:31;99445.38;;;9.83;100.00
20043;BME280;10182;52.896;6.496;2023-04-01T08:18:43;99454.72;;;9.89;100.00
20043;BME280;10182;52.896;6.496;2023-04-01T08:23:51;99462.84;;;10.01;100.00
20043;BME280;10182;52.896;6.496;2023-04-01T08:28:59;99462.56;;;10.18;100.00
20043;BME280;10182;52.896;6.496;2023-04-01T08:34:03;99474.84;;;10.19;100.00
20043;BME280;10182;52.896;6.496;2023-04-01T08:39:09;99474.84;;;10.19;100.00
20043;BME280;10182;52.896;6.496;2023-04-01T08:44:50;99494.03;;;10.23;100.00
20043;BME280;10182;52.896;6.496;2023-04-01T08:50:23;99495.91;;;10.35;100.00
20043;BME280;10182;52.896;6.496;2023-04-01T08:55:31;99498.94;;;10.56;100.00
20043;BME280;10182;52.896;6.496;2023-04-01T09:00:43;99519.75;;;10.48;100.00
20043;BME280;10182;52.896;6.496;2023-04-01T09:06:24;99517.22;;;10.46;100.00
20043;BME280;10182;52.896;6.496;2023-04-01T09:11:33;99526.41;;;10.41;100.00
20043;BME280;10182;52.896;6.496;2023-04-01T09:17:08;99534.28;;;10.28;100.00
20043;BME280;10182;52.896;6.496;2023-04-01T09:22:24;99550.81;;;10.31;100.00
20043;BME280;10182;52.896;6.496;2023-04-01T09:27:28;99546.66;;;10.42;100.00
20043;BME280;10182;52.896;6.496;2023-04-01T09:32:49;99553.25;;;10.49;100.00
20043;BME280;10182;52.896;6.496;2023-04-01T09:38:09;99559.19;;;10.53;100.00
20043;BME280;10182;52.896;6.496;2023-04-01T09:43:23;99568.81;;;10.54;100.00
20043;BME280;10182;52.896;6.496;2023-04-01T09:48:43;99582.94;;;10.40;100.00
20043;BME280;10182;52.896;6.496;2023-04-01T09:53:56;99584.88;;;10.38;100.00
20043;BME280;10182;52.896;6.496;2023-04-01T10:05:07;99601.84;;;10.33;100.00
20043;BME280;10182;52.896;6.496;2023-04-01T10:11:00;99611.22;;;10.39;100.00
20043;BME280;10182;52.896;6.496;2023-04-01T10:16:19;99623.69;;;10.37;100.00
20043;BME280;10182;52.896;6.496;2023-04-01T10:21:46;99628.81;;;10.40;100.00
20043;BME280;10182;52.896;6.496;2023-04-01T10:27:16;99622.56;;;10.41;100.00
20043;BME280;10182;52.896;6.496;2023-04-01T10:32:39;99638.91;;;10.48;100.00
20043;BME280;10182;52.896;6.496;2023-04-01T10:38:22;99639.94;;;10.45;100.00
20043;BME280;10182;52.896;6.496;2023-04-01T10:43:57;99654.31;;;10.12;100.00
20043;BME280;10182;52.896;6.496;2023-04-01T10:49:23;99668.88;;;9.91;100.00
20043;BME280;10182;52.896;6.496;2023-04-01T10:54:46;99675.38;;;9.85;100.00
20043;BME280;10182;52.896;6.496;2023-04-01T11:00:05;99679.38;;;9.92;100.00
20043;BME280;10182;52.896;6.496;2023-04-01T11:11:14;99702.16;;;9.64;100.00
20043;BME280;10182;52.896;6.496;2023-04-01T11:16:51;99709.25;;;9.64;100.00
20043;BME280;10182;52.896;6.496;2023-04-01T11:22:10;99724.75;;;9.70;100.00
20043;BME280;10182;52.896;6.496;2023-04-01T11:27:35;99726.91;;;9.63;100.00
20043;BME280;10182;52.896;6.496;2023-04-01T11:32:51;99740.09;;;9.49;100.00
20043;BME280;10182;52.896;6.496;2023-04-01T11:37:59;99753.41;;;9.47;100.00
20043;BME280;10182;52.896;6.496;2023-04-01T11:43:14;99761.75;;;9.40;100.00
20043;BME280;10182;52.896;6.496;2023-04-01T11:54:03;99776.19;;;9.18;100.00
20043;BME280;10182;52.896;6.496;2023-04-01T11:59:36;99786.00;;;9.16;100.00
20043;BME280;10182;52.896;6.496;2023-04-01T12:05:01;99801.50;;;9.22;100.00
20043;BME280;10182;52.896;6.496;2023-04-01T12:10:15;99812.59;;;9.29;100.00
20043;BME280;10182;52.896;6.496;2023-04-01T12:15:25;99822.03;;;9.33;100.00
20043;BME280;10182;52.896;6.496;2023-04-01T12:20:39;99820.09;;;9.21;100.00
20043;BME280;10182;52.896;6.496;2023-04-01T12:31:35;99846.09;;;9.28;100.00
20043;BME280;10182;52.896;6.496;2023-04-01T12:36:50;99853.34;;;9.25;100.00
20043;BME280;10182;52.896;6.496;2023-04-01T12:41:59;99857.25;;;9.18;100.00
20043;BME280;10182;52.896;6.496;2023-04-01T12:47:31;99871.56;;;9.13;100.00
20043;BME280;10182;52.896;6.496;2023-04-01T12:52:45;99886.50;;;9.14;100.00
20043;BME280;10182;52.896;6.496;2023-04-01T12:58:03;99879.41;;;9.15;100.00
20043;BME280;10182;52.896;6.496;2023-04-01T13:03:41;99894.75;;;9.08;100.00
20043;BME280;10182;52.896;6.496;2023-04-01T13:08:49;99913.16;;;9.10;100.00
20043;BME280;10182;52.896;6.496;2023-04-01T13:14:10;99924.59;;;9.10;100.00
20043;BME280;10182;52.896;6.496;2023-04-01T13:19:20;99939.66;;;9.08;100.00
20043;BME280;10182;52.896;6.496;2023-04-01T13:24:34;99944.81;;;8.94;100.00
20043;BME280;10182;52.896;6.496;2023-04-01T13:29:41;99953.97;;;8.87;100.00
20043;BME280;10182;52.896;6.496;2023-04-01T13:34:59;99962.72;;;8.71;100.00
20043;BME280;10182;52.896;6.496;2023-04-01T13:40:21;99964.41;;;8.72;100.00
20043;BME280;10182;52.896;6.496;2023-04-01T13:45:29;99975.13;;;8.69;100.00
20043;BME280;10182;52.896;6.496;2023-04-01T13:50:56;99986.31;;;8.57;100.00
20043;BME280;10182;52.896;6.496;2023-04-01T13:56:24;99997.34;;;8.48;100.00
20043;BME280;10182;52.896;6.496;2023-04-01T14:01:36;99999.53;;;8.38;100.00
20043;BME280;10182;52.896;6.496;2023-04-01T14:06:51;100008.41;;;8.37;100.00
20043;BME280;10182;52.896;6.496;2023-04-01T14:12:04;100020.34;;;8.44;100.00
20043;BME280;10182;52.896;6.496;2023-04-01T14:17:21;100037.44;;;8.37;100.00
20043;BME280;10182;52.896;6.496;2023-04-01T14:22:35;100047.25;;;8.33;100.00
20043;BME280;10182;52.896;6.496;2023-04-01T14:27:48;100064.84;;;8.15;100.00
20043;BME280;10182;52.896;6.496;2023-04-01T14:32:58;100063.84;;;8.18;100.00
20043;BME280;10182;52.896;6.496;2023-04-01T14:38:22;100074.50;;;8.14;100.00
20043;BME280;10182;52.896;6.496;2023-04-01T14:43:43;100084.72;;;8.22;100.00
20043;BME280;10182;52.896;6.496;2023-04-01T14:48:51;100094.03;;;8.10;100.00
20043;BME280;10182;52.896;6.496;2023-04-01T14:54:03;100102.91;;;8.09;100.00
20043;BME280;10182;52.896;6.496;2023-04-01T14:59:09;100113.59;;;8.06;100.00
20043;BME280;10182;52.896;6.496;2023-04-01T15:04:37;100116.53;;;8.00;100.00
20043;BME280;10182;52.896;6.496;2023-04-01T15:09:52;100131.50;;;8.00;100.00
20043;BME280;10182;52.896;6.496;2023-04-01T15:15:10;100144.72;;;7.98;100.00
20043;BME280;10182;52.896;6.496;2023-04-01T15:20:29;100160.28;;;8.04;100.00
20043;BME280;10182;52.896;6.496;2023-04-01T15:25:51;100171.06;;;8.00;100.00
20043;BME280;10182;52.896;6.496;2023-04-01T15:31:07;100180.97;;;7.94;100.00
20043;BME280;10182;52.896;6.496;2023-04-01T15:36:23;100194.44;;;8.07;100.00
20043;BME280;10182;52.896;6.496;2023-04-01T15:41:36;100203.56;;;8.00;100.00
20043;BME280;10182;52.896;6.496;2023-04-01T15:46:46;100221.19;;;8.00;100.00
20043;BME280;10182;52.896;6.496;2023-04-01T15:51:56;100223.56;;;7.85;100.00
20043;BME280;10182;52.896;6.496;2023-04-01T15:57:13;100231.31;;;7.88;100.00
20043;BME280;10182;52.896;6.496;2023-04-01T16:02:21;100252.81;;;7.79;100.00
20043;BME280;10182;52.896;6.496;2023-04-01T16:13:09;100269.63;;;7.76;100.00
20043;BME280;10182;52.896;6.496;2023-04-01T16:18:50;100277.13;;;7.65;100.00
20043;BME280;10182;52.896;6.496;2023-04-01T16:23:58;100291.47;;;7.58;100.00
20043;BME280;10182;52.896;6.496;2023-04-01T16:29:10;100306.50;;;7.56;100.00
20043;BME280;10182;52.896;6.496;2023-04-01T16:34:17;100312.16;;;7.47;100.00
20043;BME280;10182;52.896;6.496;2023-04-01T16:39:28;100330.34;;;7.31;100.00
20043;BME280;10182;52.896;6.496;2023-04-01T16:44:46;100340.63;;;7.15;100.00
20043;BME280;10182;52.896;6.496;2023-04-01T16:49:53;100362.91;;;7.06;100.00
20043;BME280;10182;52.896;6.496;2023-04-01T16:54:59;100363.19;;;6.98;100.00
20043;BME280;10182;52.896;6.496;2023-04-01T17:00:15;100369.63;;;6.91;100.00
20043;BME280;10182;52.896;6.496;2023-04-01T17:05:20;100386.97;;;6.97;100.00
20043;BME280;10182;52.896;6.496;2023-04-01T17:10:45;100394.22;;;6.90;100.00
20043;BME280;10182;52.896;6.496;2023-04-01T17:16:02;100398.78;;;6.85;100.00
20043;BME280;10182;52.896;6.496;2023-04-01T17:21:09;100422.72;;;6.78;100.00
20043;BME280;10182;52.896;6.496;2023-04-01T17:26:30;100434.28;;;6.74;100.00
20043;BME280;10182;52.896;6.496;2023-04-01T17:31:45;100444.09;;;6.69;100.00
20043;BME280;10182;52.896;6.496;2023-04-01T17:37:12;100462.91;;;6.58;100.00
20043;BME280;10182;52.896;6.496;2023-04-01T17:42:20;100476.59;;;6.43;100.00
20043;BME280;10182;52.896;6.496;2023-04-01T17:47:41;100493.44;;;6.37;100.00
20043;BME280;10182;52.896;6.496;2023-04-01T17:52:48;100509.59;;;6.26;100.00
20043;BME280;10182;52.896;6.496;2023-04-01T17:57:57;100516.41;;;6.32;100.00
20043;BME280;10182;52.896;6.496;2023-04-01T18:03:12;100541.38;;;6.19;100.00
20043;BME280;10182;52.896;6.496;2023-04-01T18:08:26;100546.81;;;6.14;100.00
20043;BME280;10182;52.896;6.496;2023-04-01T18:13:47;100560.34;;;6.02;100.00
20043;BME280;10182;52.896;6.496;2023-04-01T18:19:02;100578.59;;;6.06;100.00
20043;BME280;10182;52.896;6.496;2023-04-01T18:24:16;100593.47;;;6.07;100.00
20043;BME280;10182;52.896;6.496;2023-04-01T18:29:27;100603.09;;;6.08;100.00
20043;BME280;10182;52.896;6.496;2023-04-01T18:34:47;100616.72;;;5.90;100.00
20043;BME280;10182;52.896;6.496;2023-04-01T18:39:52;100626.66;;;5.80;100.00
20043;BME280;10182;52.896;6.496;2023-04-01T18:45:01;100641.66;;;5.76;100.00
20043;BME280;10182;52.896;6.496;2023-04-01T18:50:18;100652.81;;;5.85;100.00
20043;BME280;10182;52.896;6.496;2023-04-01T18:55:39;100669.56;;;5.81;100.00
20043;BME280;10182;52.896;6.496;2023-04-01T19:00:47;100684.44;;;5.82;100.00
20043;BME280;10182;52.896;6.496;2023-04-01T19:05:53;100695.09;;;5.77;100.00
20043;BME280;10182;52.896;6.496;2023-04-01T19:11:05;100700.69;;;5.65;100.00
20043;BME280;10182;52.896;6.496;2023-04-01T19:16:13;100719.13;;;5.63;100.00
20043;BME280;10182;52.896;6.496;2023-04-01T19:21:21;100736.78;;;5.58;100.00
20043;BME280;10182;52.896;6.496;2023-04-01T19:26:31;100742.78;;;5.63;100.00
20043;BME280;10182;52.896;6.496;2023-04-01T19:31:49;100745.56;;;5.57;100.00
20043;BME280;10182;52.896;6.496;2023-04-01T19:36:56;100767.31;;;5.62;100.00
20043;BME280;10182;52.896;6.496;2023-04-01T19:42:07;100774.31;;;5.62;100.00
20043;BME280;10182;52.896;6.496;2023-04-01T19:47:19;100778.69;;;5.63;100.00
20043;BME280;10182;52.896;6.496;2023-04-01T19:52:30;100793.97;;;5.48;100.00
20043;BME280;10182;52.896;6.496;2023-04-01T19:57:39;100795.13;;;5.36;100.00
20043;BME280;10182;52.896;6.496;2023-04-01T20:02:54;100809.06;;;5.38;100.00
20043;BME280;10182;52.896;6.496;2023-04-01T20:08:05;100827.44;;;5.38;100.00
20043;BME280;10182;52.896;6.496;2023-04-01T20:13:18;100851.84;;;5.43;100.00
20043;BME280;10182;52.896;6.496;2023-04-01T20:18:26;100850.47;;;5.27;100.00
20043;BME280;10182;52.896;6.496;2023-04-01T20:23:39;100872.47;;;5.23;100.00
20043;BME280;10182;52.896;6.496;2023-04-01T20:28:44;100875.00;;;5.28;100.00
20043;BME280;10182;52.896;6.496;2023-04-01T20:45:22;100917.41;;;5.09;100.00
20043;BME280;10182;52.896;6.496;2023-04-01T20:50:35;100910.72;;;4.94;100.00
20043;BME280;10182;52.896;6.496;2023-04-01T20:55:58;100936.94;;;4.96;100.00
20043;BME280;10182;52.896;6.496;2023-04-01T21:01:13;100943.06;;;4.95;100.00
20043;BME280;10182;52.896;6.496;2023-04-01T21:06:31;100952.72;;;4.94;100.00
20043;BME280;10182;52.896;6.496;2023-04-01T21:11:45;100953.75;;;4.87;100.00
20043;BME280;10182;52.896;6.496;2023-04-01T21:16:59;100972.94;;;4.89;100.00
20043;BME280;10182;52.896;6.496;2023-04-01T21:22:17;100980.09;;;4.81;100.00
20043;BME280;10182;52.896;6.496;2023-04-01T21:27:34;100992.41;;;4.79;100.00
20043;BME280;10182;52.896;6.496;2023-04-01T21:32:55;101009.03;;;4.78;100.00
20043;BME280;10182;52.896;6.496;2023-04-01T21:38:23;101020.56;;;4.69;100.00
20043;BME280;10182;52.896;6.496;2023-04-01T21:49:09;101032.94;;;4.61;100.00
20043;BME280;10182;52.896;6.496;2023-04-01T21:54:35;101047.78;;;4.65;100.00
20043;BME280;10182;52.896;6.496;2023-04-01T22:00:07;101068.75;;;4.65;100.00
20043;BME280;10182;52.896;6.496;2023-04-01T22:05:15;101065.25;;;4.64;100.00
20043;BME280;10182;52.896;6.496;2023-04-01T22:10:26;101074.19;;;4.52;100.00
20043;BME280;10182;52.896;6.496;2023-04-01T22:15:51;101095.19;;;4.54;100.00
20043;BME280;10182;52.896;6.496;2023-04-01T22:20:59;101097.03;;;4.47;100.00
20043;BME280;10182;52.896;6.496;2023-04-01T22:26:10;101111.75;;;4.56;100.00
20043;BME280;10182;52.896;6.496;2023-04-01T22:31:19;101115.38;;;4.47;100.00
20043;BME280;10182;52.896;6.496;2023-04-01T22:36:32;101128.63;;;4.39;100.00
20043;BME280;10182;52.896;6.496;2023-04-01T22:41:47;101128.75;;;4.30;100.00
20043;BME280;10182;52.896;6.496;2023-04-01T22:46:56;101143.50;;;4.39;100.00
20043;BME280;10182;52.896;6.496;2023-04-01T22:52:05;101150.63;;;4.29;100.00
20043;BME280;10182;52.896;6.496;2023-04-01T22:57:15;101164.66;;;4.23;100.00
20043;BME280;10182;52.896;6.496;2023-04-01T23:02:23;101166.34;;;4.31;100.00
20043;BME280;10182;52.896;6.496;2023-04-01T23:07:38;101172.63;;;4.17;100.00
20043;BME280;10182;52.896;6.496;2023-04-01T23:12:47;101204.16;;;4.11;100.00
20043;BME280;10182;52.896;6.496;2023-04-01T23:18:09;101188.44;;;4.11;100.00
20043;BME280;10182;52.896;6.496;2023-04-01T23:23:26;101204.22;;;4.06;100.00
20043;BME280;10182;52.896;6.496;2023-04-01T23:28:47;101216.53;;;4.01;100.00
20043;BME280;10182;52.896;6.496;2023-04-01T23:33:53;101226.97;;;4.04;100.00
20043;BME280;10182;52.896;6.496;2023-04-01T23:39:04;101234.03;;;3.99;100.00
20043;BME280;10182;52.896;6.496;2023-04-01T23:44:10;101245.38;;;4.00;100.00
20043;BME280;10182;52.896;6.496;2023-04-01T23:49:17;101259.41;;;3.96;100.00
20043;BME280;10182;52.896;6.496;2023-04-01T23:54:24;101270.78;;;3.93;100.00
20043;BME280;10182;52.896;6.496;2023-04-01T23:59:32;101285.72;;;3.85;100.00
